Time;durP1;ratioP1;P1;durP2;ratioP2;P2;SDS_P1;SDS_P2;PMS_P1;PMS_P2;Temp;Humidity;BMP_temperature;BMP_pressure;BME280_temperature;BME280_humidity;BME280_pressure;Samples;Min_cycle;Max_cycle;Signal;HPM_P1;HPM_P2
2024/02/03 00:01:11;;;;;;;14.60;7.90;;;;;;;8.84;99.39;100340.52;181303;1254;44274;-81
2024/02/03 00:05:29;;;;;;;12.10;7.80;;;;;;;8.82;100.00;100347.36;181466;1258;58281;-81
2024/02/03 00:09:32;;;;;;;11.20;8.60;;;;;;;8.82;99.81;100338.88;181500;1254;43891;-81
2024/02/03 00:13:36;;;;;;;11.90;7.40;;;;;;;8.84;99.82;100339.08;181403;1257;44066;-81
2024/02/03 00:17:39;;;;;;;14.60;7.80;;;;;;;8.85;99.95;100347.45;181408;1257;43944;-81
2024/02/03 00:21:42;;;;;;;11.20;7.60;;;;;;;8.80;100.00;100347.70;181512;1257;43847;-81
2024/02/03 00:25:45;;;;;;;13.10;6.90;;;;;;;8.83;100.00;100338.40;181500;1257;60600;-81
2024/02/03 00:29:49;;;;;;;11.30;6.40;;;;;;;8.82;100.00;100350.66;181445;1256;44035;-81
2024/02/03 00:33:52;;;;;;;11.90;7.80;;;;;;;8.84;100.00;100340.17;181281;1257;44270;-81
2024/02/03 00:37:55;;;;;;;15.60;8.10;;;;;;;8.88;100.00;100345.15;181473;1257;44020;-80
2024/02/03 00:41:58;;;;;;;10.40;7.80;;;;;;;8.92;100.00;100342.88;181434;1256;44234;-81
2024/02/03 00:46:01;;;;;;;10.90;8.80;;;;;;;8.92;100.00;100336.18;181483;1257;57285;-81
2024/02/03 00:50:05;;;;;;;13.30;6.70;;;;;;;8.89;100.00;100340.13;181286;1254;44092;-81
2024/02/03 00:54:08;;;;;;;13.40;8.70;;;;;;;8.90;100.00;100336.69;181445;1257;44166;-81
2024/02/03 00:58:12;;;;;;;12.60;7.80;;;;;;;8.93;100.00;100331.89;181468;1254;43857;-81
2024/02/03 01:02:15;;;;;;;15.80;7.30;;;;;;;8.95;100.00;100335.39;181326;1254;43977;-81
2024/02/03 01:06:18;;;;;;;10.30;7.10;;;;;;;8.97;100.00;100338.67;181456;1254;58308;-81
2024/02/03 01:10:21;;;;;;;9.30;6.40;;;;;;;8.94;100.00;100337.77;181424;1254;44258;-80
2024/02/03 01:14:24;;;;;;;10.90;6.90;;;;;;;8.97;100.00;100338.64;181354;1256;44282;-81
2024/02/03 01:18:27;;;;;;;11.60;6.40;;;;;;;8.97;100.00;100344.98;181341;1256;44071;-79
2024/02/03 01:22:31;;;;;;;14.70;6.20;;;;;;;8.97;100.00;100336.33;181369;1257;44209;-79
2024/02/03 01:26:34;;;;;;;12.30;6.80;;;;;;;8.96;100.00;100335.90;181389;1254;58233;-79
2024/02/03 01:30:37;;;;;;;13.00;7.60;;;;;;;9.01;100.00;100343.48;181361;1256;44381;-79
2024/02/03 01:34:40;;;;;;;10.60;6.30;;;;;;;8.99;100.00;100337.83;181390;1254;43987;-79
2024/02/03 01:38:48;;;;;;;11.70;7.40;;;;;;;9.08;100.00;100358.73;181557;1255;43809;-79
2024/02/03 01:42:57;;;;;;;10.80;6.50;;;;;;;9.09;100.00;100356.35;181324;1256;44123;-79
2024/02/03 01:47:01;;;;;;;9.30;5.20;;;;;;;9.11;100.00;100363.30;181239;1256;58066;-81
2024/02/03 01:51:06;;;;;;;11.40;6.70;;;;;;;9.05;100.00;100370.95;181531;1256;43944;-81
2024/02/03 01:55:10;;;;;;;10.60;6.50;;;;;;;9.10;100.00;100363.67;181385;1255;44094;-81
2024/02/03 01:59:13;;;;;;;11.30;7.60;;;;;;;9.13;100.00;100369.30;181377;1255;43951;-81
2024/02/03 02:03:17;;;;;;;9.90;5.90;;;;;;;9.13;100.00;100362.90;181651;1255;44187;-81
2024/02/03 02:07:20;;;;;;;15.90;6.80;;;;;;;9.12;100.00;100358.08;181808;1256;58193;-81
2024/02/03 02:11:24;;;;;;;9.90;7.20;;;;;;;9.08;100.00;100356.10;181353;1255;44253;-81
2024/02/03 02:15:27;;;;;;;7.90;5.80;;;;;;;9.11;100.00;100357.45;181470;1254;44277;-81
2024/02/03 02:19:30;;;;;;;11.10;6.30;;;;;;;9.09;100.00;100360.59;181563;1255;43785;-81
2024/02/03 02:23:33;;;;;;;7.90;6.10;;;;;;;9.11;100.00;100348.76;181574;1255;43808;-82
2024/02/03 02:27:36;;;;;;;7.80;5.60;;;;;;;9.14;100.00;100356.30;181341;1256;60114;-80
2024/02/03 02:31:39;;;;;;;6.00;5.00;;;;;;;9.15;100.00;100359.41;181516;1256;44115;-81
2024/02/03 02:35:44;;;;;;;7.00;4.70;;;;;;;9.12;100.00;100358.76;181558;1256;44155;-81
2024/02/03 02:39:47;;;;;;;5.70;3.60;;;;;;;9.16;100.00;100350.33;181320;1255;44205;-81
2024/02/03 02:43:51;;;;;;;12.30;6.00;;;;;;;9.13;100.00;100342.89;181347;1256;45565;-81
2024/02/03 02:47:54;;;;;;;6.90;4.90;;;;;;;9.17;100.00;100338.26;181508;1255;59493;-81
2024/02/03 02:51:57;;;;;;;5.80;4.70;;;;;;;9.22;100.00;100338.04;181551;1256;43894;-80
2024/02/03 02:56:00;;;;;;;7.70;5.00;;;;;;;9.22;100.00;100338.58;181316;1255;44319;-81
2024/02/03 03:00:04;;;;;;;10.30;5.90;;;;;;;9.21;100.00;100338.83;181516;1255;44158;-80
2024/02/03 03:04:07;;;;;;;12.20;5.70;;;;;;;9.17;100.00;100340.83;181525;1255;43905;-81
2024/02/03 03:08:10;;;;;;;10.20;4.80;;;;;;;9.15;100.00;100338.92;181337;1255;57703;-81
2024/02/03 03:12:13;;;;;;;9.40;5.30;;;;;;;8.98;100.00;100340.30;181431;1254;43931;-81
2024/02/03 03:16:16;;;;;;;9.60;6.30;;;;;;;8.96;100.00;100338.55;181341;1254;44094;-80
2024/02/03 03:20:20;;;;;;;9.00;5.80;;;;;;;8.96;100.00;100335.03;181562;1254;44178;-81
2024/02/03 03:24:23;;;;;;;6.90;4.70;;;;;;;8.92;100.00;100343.41;181516;1254;44000;-81
2024/02/03 03:28:26;;;;;;;8.80;6.90;;;;;;;8.86;100.00;100336.06;181291;1255;219984;-81
2024/02/03 03:32:29;;;;;;;9.70;6.00;;;;;;;8.90;100.00;100337.05;181517;1254;44190;-81
2024/02/03 03:36:32;;;;;;;10.00;6.90;;;;;;;8.92;100.00;100334.80;181621;1254;44012;-81
2024/02/03 03:40:36;;;;;;;9.50;6.90;;;;;;;8.91;100.00;100339.65;181445;1255;44173;-80
2024/02/03 03:44:39;;;;;;;9.60;7.20;;;;;;;8.95;100.00;100346.18;181431;1254;44164;-81
2024/02/03 03:48:42;;;;;;;9.40;6.50;;;;;;;8.96;100.00;100364.04;181546;1254;59543;-81
2024/02/03 03:52:45;;;;;;;13.30;8.40;;;;;;;8.98;100.00;100365.98;181319;1254;43882;-81
2024/02/03 03:56:48;;;;;;;17.60;7.30;;;;;;;8.98;100.00;100366.85;181282;1254;43867;-81
2024/02/03 04:00:51;;;;;;;8.70;7.30;;;;;;;9.03;100.00;100363.17;181418;1255;44302;-81
2024/02/03 04:04:54;;;;;;;10.20;6.50;;;;;;;9.05;100.00;100353.13;181342;1254;44099;-81
2024/02/03 04:08:58;;;;;;;9.30;6.90;;;;;;;9.13;100.00;100353.77;181507;1255;59240;-81
2024/02/03 04:13:01;;;;;;;10.00;6.30;;;;;;;9.17;100.00;100352.95;181529;1255;43858;-81
2024/02/03 04:17:04;;;;;;;12.10;7.50;;;;;;;9.19;100.00;100345.15;181557;1255;44249;-81
2024/02/03 04:21:07;;;;;;;9.80;5.60;;;;;;;9.20;100.00;100346.83;181377;1255;43861;-81
2024/02/03 04:25:11;;;;;;;6.50;5.90;;;;;;;9.31;100.00;100343.21;181613;1255;43799;-81
2024/02/03 04:29:14;;;;;;;8.30;5.50;;;;;;;9.35;100.00;100339.86;182109;1256;57982;-81
2024/02/03 04:33:17;;;;;;;8.60;6.80;;;;;;;9.36;100.00;100349.73;181491;1255;44160;-81
2024/02/03 04:37:20;;;;;;;7.60;6.70;;;;;;;9.40;100.00;100342.38;181352;1256;44085;-81
2024/02/03 04:41:24;;;;;;;9.10;6.20;;;;;;;9.46;100.00;100347.95;181586;1256;44194;-81
2024/02/03 04:45:27;;;;;;;10.50;7.40;;;;;;;9.45;100.00;100354.59;181385;1256;44103;-81
2024/02/03 04:49:30;;;;;;;13.30;8.20;;;;;;;9.55;100.00;100342.63;181456;1255;58537;-81
2024/02/03 04:53:34;;;;;;;7.30;6.10;;;;;;;9.52;100.00;100336.49;181410;1255;43912;-81
2024/02/03 04:57:37;;;;;;;9.00;7.20;;;;;;;9.56;100.00;100331.76;181386;1254;44141;-81
2024/02/03 05:01:40;;;;;;;18.80;8.30;;;;;;;9.62;100.00;100322.98;181334;1255;44260;-81
2024/02/03 05:05:43;;;;;;;9.30;6.90;;;;;;;9.67;100.00;100322.61;181492;1255;43862;-81
2024/02/03 05:09:46;;;;;;;8.90;7.00;;;;;;;9.69;100.00;100308.63;181518;1255;57912;-81
2024/02/03 05:13:50;;;;;;;10.30;7.80;;;;;;;9.75;100.00;100321.47;181496;1255;43751;-81
2024/02/03 05:17:53;;;;;;;8.70;7.40;;;;;;;9.71;100.00;100315.23;181558;1255;44100;-80
2024/02/03 05:21:56;;;;;;;6.40;5.20;;;;;;;9.75;100.00;100313.34;181606;1255;44031;-81
2024/02/03 05:25:59;;;;;;;11.70;7.80;;;;;;;9.78;100.00;100316.63;181558;1255;43732;-81
2024/02/03 05:30:02;;;;;;;6.70;5.50;;;;;;;9.80;100.00;100307.23;181382;1255;59753;-81
2024/02/03 05:34:05;;;;;;;18.80;7.30;;;;;;;9.84;100.00;100309.08;181321;1257;44111;-81
2024/02/03 05:38:09;;;;;;;9.50;6.30;;;;;;;9.75;100.00;100317.54;181527;1254;43757;-81
2024/02/03 05:42:12;;;;;;;11.00;8.10;;;;;;;9.79;100.00;100311.41;181628;1254;43689;-81
2024/02/03 05:46:15;;;;;;;12.00;7.80;;;;;;;9.75;100.00;100310.98;181586;1256;44115;-81
2024/02/03 05:50:18;;;;;;;7.50;6.60;;;;;;;9.78;100.00;100306.16;181361;1255;58213;-81
2024/02/03 05:54:21;;;;;;;8.90;7.50;;;;;;;9.75;100.00;100307.45;181510;1255;44815;-81
2024/02/03 05:58:24;;;;;;;8.90;7.20;;;;;;;9.81;100.00;100301.20;181388;1255;44051;-81
2024/02/03 06:02:30;;;;;;;12.40;7.60;;;;;;;9.81;100.00;100299.74;181570;1254;43842;-81
2024/02/03 06:06:33;;;;;;;;;;;;;;;9.84;100.00;100294.39;181429;1255;43727;-81
2024/02/03 06:10:37;;;;;;;8.20;6.30;;;;;;;9.89;100.00;100292.08;181553;1255;58005;-81
2024/02/03 06:14:41;;;;;;;16.30;9.10;;;;;;;9.91;100.00;100299.16;181488;1255;43931;-81
2024/02/03 06:18:44;;;;;;;10.50;7.50;;;;;;;9.95;100.00;100298.66;181546;1255;44008;-81
2024/02/03 06:22:47;;;;;;;10.70;8.70;;;;;;;9.96;100.00;100303.33;181565;1255;44280;-81
2024/02/03 06:26:50;;;;;;;11.20;6.70;;;;;;;9.96;100.00;100304.44;181529;1255;44283;-81
2024/02/03 06:30:53;;;;;;;9.60;6.50;;;;;;;9.84;100.00;100311.92;181559;1255;57135;-81
2024/02/03 06:34:56;;;;;;;8.40;6.50;;;;;;;9.92;100.00;100305.92;181533;1255;44150;-81
2024/02/03 06:39:00;;;;;;;15.20;9.20;;;;;;;9.87;100.00;100304.61;181432;1255;44059;-81
2024/02/03 06:43:03;;;;;;;9.10;7.20;;;;;;;9.92;100.00;100300.14;181533;1255;46035;-81
2024/02/03 06:47:06;;;;;;;10.00;7.00;;;;;;;9.98;100.00;100302.14;181602;1255;44199;-81
2024/02/03 06:51:09;;;;;;;10.50;9.40;;;;;;;10.03;100.00;100289.70;182091;1256;59976;-81
2024/02/03 06:55:12;;;;;;;8.40;6.90;;;;;;;10.06;100.00;100294.73;181857;1255;44083;-80
2024/02/03 06:59:15;;;;;;;8.40;6.70;;;;;;;10.11;100.00;100308.36;181613;1255;44110;-81
2024/02/03 07:03:18;;;;;;;11.70;7.20;;;;;;;10.13;100.00;100318.15;181600;1255;44193;-81
2024/02/03 07:07:22;;;;;;;8.20;6.10;;;;;;;10.13;100.00;100322.77;181392;1256;44057;-81
2024/02/03 07:11:25;;;;;;;7.50;5.70;;;;;;;10.09;100.00;100328.02;181548;1255;59504;-81
2024/02/03 07:15:29;;;;;;;11.00;6.10;;;;;;;10.15;100.00;100323.48;181524;1255;44140;-81
2024/02/03 07:19:32;;;;;;;7.60;5.70;;;;;;;10.21;100.00;100336.34;181619;1255;43845;-82
2024/02/03 07:23:35;;;;;;;7.90;5.90;;;;;;;10.21;100.00;100340.39;181562;1255;43854;-81
2024/02/03 07:27:38;;;;;;;11.00;8.50;;;;;;;10.22;100.00;100340.33;181263;1256;44173;-82
2024/02/03 07:31:41;;;;;;;6.40;5.40;;;;;;;10.26;100.00;100342.45;181566;1254;59495;-81
2024/02/03 07:35:45;;;;;;;8.70;6.40;;;;;;;10.23;100.00;100341.28;181440;1255;43963;-82
2024/02/03 07:39:48;;;;;;;7.90;6.50;;;;;;;10.25;100.00;100342.55;181432;1255;43908;-82
2024/02/03 07:43:51;;;;;;;11.20;5.70;;;;;;;10.28;100.00;100337.53;181548;1255;43820;-82
2024/02/03 07:47:54;;;;;;;7.00;4.40;;;;;;;10.32;100.00;100341.13;181263;1255;44200;-82
2024/02/03 07:51:58;;;;;;;5.20;4.00;;;;;;;10.31;100.00;100333.34;181313;1255;58267;-83
2024/02/03 07:56:05;;;;;;;12.30;4.50;;;;;;;10.25;100.00;100333.70;181322;1255;44060;-82
2024/02/03 08:00:08;;;;;;;8.40;5.00;;;;;;;10.19;100.00;100330.63;181462;1255;43848;-82
2024/02/03 08:04:12;;;;;;;7.10;4.90;;;;;;;10.15;100.00;100338.35;181361;1255;44269;-81
2024/02/03 08:08:15;;;;;;;7.40;5.50;;;;;;;10.09;100.00;100334.21;181281;1255;43807;-81
2024/02/03 08:12:18;;;;;;;4.40;3.80;;;;;;;10.07;100.00;100337.77;181291;1255;59603;-81
2024/02/03 08:16:21;;;;;;;5.80;4.70;;;;;;;10.04;100.00;100341.38;181508;1255;44160;-83
2024/02/03 08:20:24;;;;;;;6.80;4.50;;;;;;;9.98;100.00;100335.05;181622;1255;44059;-85
2024/02/03 08:24:27;;;;;;;7.70;4.50;;;;;;;10.02;100.00;100347.00;181508;1255;44016;-82
2024/02/03 08:28:31;;;;;;;6.80;4.60;;;;;;;10.01;100.00;100343.56;181546;1254;43967;-82
2024/02/03 08:32:34;;;;;;;7.20;4.60;;;;;;;10.03;100.00;100347.13;181393;1256;59922;-82
2024/02/03 08:36:37;;;;;;;6.90;5.20;;;;;;;10.02;100.00;100338.00;181259;1256;44032;-83
2024/02/03 08:40:40;;;;;;;6.30;4.90;;;;;;;10.02;100.00;100344.02;181331;1256;44216;-83
2024/02/03 08:44:44;;;;;;;7.10;4.80;;;;;;;10.05;100.00;100343.05;181352;1255;44330;-83
2024/02/03 08:48:47;;;;;;;6.70;5.30;;;;;;;10.08;100.00;100354.50;181513;1255;43830;-82
2024/02/03 08:52:50;;;;;;;8.10;4.80;;;;;;;10.13;100.00;100352.89;181413;1256;58163;-82
2024/02/03 08:56:53;;;;;;;8.10;5.60;;;;;;;10.16;100.00;100358.48;181520;1255;44854;-83
2024/02/03 09:00:56;;;;;;;7.10;5.40;;;;;;;10.22;100.00;100365.80;181493;1255;43688;-83
2024/02/03 09:05:00;;;;;;;9.90;5.70;;;;;;;10.24;100.00;100362.49;181483;1255;44805;-82
2024/02/03 09:09:05;;;;;;;5.60;4.90;;;;;;;10.29;100.00;100371.12;181408;1255;44077;-82
2024/02/03 09:13:08;;;;;;;7.80;4.60;;;;;;;10.34;100.00;100377.86;181319;1254;59851;-83
2024/02/03 09:17:12;;;;;;;11.70;5.00;;;;;;;10.37;100.00;100386.27;181940;1257;43734;-82
2024/02/03 09:21:15;;;;;;;6.80;5.00;;;;;;;10.37;100.00;100394.09;181652;1256;44412;-82
2024/02/03 09:25:22;;;;;;;8.40;5.10;;;;;;;10.32;100.00;100398.88;181318;1254;44453;-82
2024/02/03 09:29:41;;;;;;;9.50;6.20;;;;;;;10.35;100.00;100411.92;181591;1254;43822;-84
2024/02/03 09:33:54;;;;;;;9.40;6.90;;;;;;;10.35;100.00;100406.79;181694;1254;57937;-86
2024/02/03 09:37:58;;;;;;;9.00;6.40;;;;;;;10.38;100.00;100404.61;181648;1252;43840;-86
2024/02/03 09:42:02;;;;;;;6.40;5.00;;;;;;;10.42;100.00;100410.35;181782;1252;44264;-85
2024/02/03 09:46:06;;;;;;;6.30;4.80;;;;;;;10.47;100.00;100409.42;181535;1252;43817;-85
2024/02/03 09:50:09;;;;;;;9.30;5.40;;;;;;;10.52;100.00;100418.98;181783;1253;43754;-85
2024/02/03 09:54:13;;;;;;;6.30;5.40;;;;;;;10.54;100.00;100417.97;181916;1252;58818;-86
2024/02/03 09:58:16;;;;;;;7.10;4.80;;;;;;;10.63;100.00;100424.71;181772;1253;44090;-86
2024/02/03 10:02:20;;;;;;;5.80;4.10;;;;;;;10.66;100.00;100421.11;181953;1253;44177;-86
2024/02/03 10:06:23;;;;;;;5.50;4.50;;;;;;;10.74;100.00;100418.85;181634;1252;43760;-86
2024/02/03 10:10:27;;;;;;;4.90;4.00;;;;;;;10.82;100.00;100417.02;181754;1253;44076;-85
2024/02/03 10:14:33;;;;;;;;;;;;;;;10.79;100.00;100414.19;181610;1253;58354;-85
2024/02/03 10:18:36;;;;;;;8.50;4.50;;;;;;;10.89;100.00;100408.77;181794;1253;43843;-86
2024/02/03 10:22:40;;;;;;;4.10;3.40;;;;;;;10.95;100.00;100407.94;181726;1253;44105;-86
2024/02/03 10:26:44;;;;;;;16.20;5.40;;;;;;;11.01;100.00;100407.65;181692;1252;43827;-86
2024/02/03 10:30:48;;;;;;;6.30;5.30;;;;;;;11.06;100.00;100409.23;181696;1252;44014;-85
2024/02/03 10:34:53;;;;;;;6.70;4.10;;;;;;;11.09;100.00;100398.30;181757;1252;58185;-87
2024/02/03 10:38:56;;;;;;;5.40;4.10;;;;;;;11.13;100.00;100394.56;181616;1252;43860;-85
2024/02/03 10:43:01;;;;;;;6.90;4.30;;;;;;;11.17;100.00;100400.45;181609;1252;47303;-86
2024/02/03 10:47:06;;;;;;;3.80;3.50;;;;;;;11.20;100.00;100395.08;181629;1252;44457;-86
2024/02/03 10:51:21;;;;;;;8.60;4.20;;;;;;;11.22;100.00;100389.09;181728;1252;44189;-85
2024/02/03 10:55:29;;;;;;;4.00;3.60;;;;;;;11.26;100.00;100391.77;181832;1253;60015;-85
2024/02/03 10:59:32;;;;;;;5.30;3.20;;;;;;;11.26;100.00;100384.47;181938;1252;44023;-84
2024/02/03 11:03:39;;;;;;;5.40;3.20;;;;;;;11.23;100.00;100389.02;181630;1253;44443;-85
2024/02/03 11:07:45;;;;;;;6.80;3.10;;;;;;;11.39;100.00;100389.96;181846;1254;44004;-85
2024/02/03 11:11:53;;;;;;;4.00;2.80;;;;;;;11.48;100.00;100381.60;181763;1252;43902;-84
2024/02/03 11:15:57;;;;;;;3.40;3.10;;;;;;;11.49;100.00;100380.63;181811;1253;60940;-85
2024/02/03 11:20:06;;;;;;;5.00;3.50;;;;;;;11.46;100.00;100383.34;181694;1252;44981;-83
2024/02/03 11:24:12;;;;;;;3.00;2.60;;;;;;;11.49;100.00;100378.16;181664;1253;43824;-83
2024/02/03 11:28:16;;;;;;;5.70;3.30;;;;;;;11.42;100.00;100377.13;181794;1252;43913;-83
2024/02/03 11:32:23;;;;;;;3.60;2.10;;;;;;;11.45;100.00;100387.14;181672;1253;43835;-84
2024/02/03 11:36:29;;;;;;;3.40;3.00;;;;;;;11.61;100.00;100384.61;181404;1253;58526;-84
2024/02/03 11:40:41;;;;;;;2.30;2.10;;;;;;;11.69;100.00;100369.90;181626;1253;43845;-84
2024/02/03 11:44:47;;;;;;;2.70;2.00;;;;;;;11.71;100.00;100357.63;181811;1253;43934;-85
2024/02/03 11:48:50;;;;;;;;;;;;;;;11.68;100.00;100338.69;181893;1253;44977;-84
2024/02/03 11:52:53;;;;;;;6.80;2.60;;;;;;;11.75;100.00;100356.27;181700;1253;43827;-84
2024/02/03 11:56:57;;;;;;;2.60;2.30;;;;;;;11.84;100.00;100343.86;181691;1253;58465;-85
2024/02/03 12:01:11;;;;;;;3.80;1.80;;;;;;;11.86;100.00;100352.44;181852;1253;44075;-85
2024/02/03 12:05:16;;;;;;;2.80;1.90;;;;;;;11.86;100.00;100352.10;181540;1253;44011;-85
2024/02/03 12:09:20;;;;;;;3.20;2.00;;;;;;;11.79;100.00;100351.84;181511;1253;43822;-84
2024/02/03 12:13:23;;;;;;;2.70;2.30;;;;;;;11.74;100.00;100353.64;181526;1254;44199;-86
2024/02/03 12:17:27;;;;;;;2.70;2.10;;;;;;;11.63;100.00;100355.66;181640;1253;58913;-85
2024/02/03 12:21:31;;;;;;;3.00;2.10;;;;;;;11.72;100.00;100352.92;181664;1253;43890;-85
2024/02/03 12:25:34;;;;;;;2.70;2.20;;;;;;;11.86;100.00;100351.70;181500;1253;44274;-85
2024/02/03 12:29:40;;;;;;;6.00;3.00;;;;;;;11.96;100.00;100349.66;181733;1253;44139;-85
2024/02/03 12:33:43;;;;;;;;;;;;;;;11.98;100.00;100342.48;181670;1253;44084;-85
2024/02/03 12:37:47;;;;;;;2.30;1.80;;;;;;;11.99;100.00;100341.39;181786;1253;58582;-85
2024/02/03 12:41:51;;;;;;;2.50;2.20;;;;;;;11.92;100.00;100341.25;181799;1253;44108;-84
2024/02/03 12:45:54;;;;;;;3.80;2.60;;;;;;;11.80;100.00;100349.96;181572;1253;44053;-85
2024/02/03 12:49:58;;;;;;;2.90;1.50;;;;;;;11.70;100.00;100352.38;181581;1254;43788;-85
2024/02/03 12:54:01;;;;;;;2.70;1.90;;;;;;;11.56;100.00;100346.30;181788;1253;44071;-86
2024/02/03 12:58:05;;;;;;;3.40;2.10;;;;;;;11.56;100.00;100348.57;181878;1253;58438;-85
2024/02/03 13:02:08;;;;;;;3.40;2.40;;;;;;;11.59;100.00;100346.55;181695;1253;44087;-85
2024/02/03 13:06:12;;;;;;;2.60;2.10;;;;;;;11.58;100.00;100349.83;181771;1253;44256;-85
2024/02/03 13:10:16;;;;;;;2.30;2.10;;;;;;;11.62;100.00;100347.40;181588;1253;43951;-84
2024/02/03 13:14:19;;;;;;;2.80;2.50;;;;;;;11.61;100.00;100348.32;181621;1253;44175;-85
2024/02/03 13:18:23;;;;;;;3.90;2.60;;;;;;;11.59;100.00;100347.84;181602;1257;57538;-84
2024/02/03 13:22:27;;;;;;;2.00;1.80;;;;;;;11.59;100.00;100340.48;181660;1253;44236;-84
2024/02/03 13:26:30;;;;;;;3.10;1.90;;;;;;;11.63;100.00;100343.42;181572;1253;44183;-84
2024/02/03 13:30:34;;;;;;;3.20;2.80;;;;;;;11.66;100.00;100331.60;181648;1253;43748;-83
2024/02/03 13:34:37;;;;;;;2.70;2.00;;;;;;;11.68;100.00;100334.30;181846;1253;43825;-84
2024/02/03 13:38:42;;;;;;;2.90;2.40;;;;;;;11.71;100.00;100340.55;181811;1253;58079;-84
2024/02/03 13:42:51;;;;;;;4.20;1.90;;;;;;;11.68;100.00;100344.27;181777;1253;43979;-84
2024/02/03 13:46:55;;;;;;;3.00;1.70;;;;;;;11.58;100.00;100350.40;181850;1253;43980;-85
2024/02/03 13:50:58;;;;;;;1.70;1.50;;;;;;;11.51;100.00;100337.46;182019;1253;43973;-85
2024/02/03 13:55:02;;;;;;;2.60;2.00;;;;;;;11.55;100.00;100342.67;181623;1253;43936;-85
2024/02/03 13:59:06;;;;;;;3.00;2.10;;;;;;;11.65;100.00;100351.23;181663;1253;59537;-84
2024/02/03 14:03:10;;;;;;;3.20;2.20;;;;;;;11.69;100.00;100352.96;181828;1253;43963;-85
2024/02/03 14:07:13;;;;;;;2.40;2.20;;;;;;;11.77;100.00;100350.16;181909;1253;43987;-86
2024/02/03 14:11:17;;;;;;;3.10;2.30;;;;;;;11.81;100.00;100352.12;181784;1253;44719;-85
2024/02/03 14:15:20;;;;;;;1.60;1.40;;;;;;;11.78;100.00;100349.57;181865;1253;43798;-84
2024/02/03 14:19:24;;;;;;;3.20;1.50;;;;;;;11.80;100.00;100342.45;181735;1253;57963;-87
2024/02/03 14:23:27;;;;;;;1.60;1.50;;;;;;;11.80;100.00;100338.18;181769;1254;44235;-86
2024/02/03 14:27:32;;;;;;;2.40;2.10;;;;;;;11.78;100.00;100345.49;181635;1253;44040;-84
2024/02/03 14:31:36;;;;;;;2.20;1.70;;;;;;;11.74;100.00;100349.05;181670;1253;44270;-85
2024/02/03 14:35:40;;;;;;;1.60;1.50;;;;;;;11.69;100.00;100344.66;181708;1254;44305;-85
2024/02/03 14:39:44;;;;;;;2.30;2.00;;;;;;;11.62;100.00;100339.59;181934;1254;59316;-85
2024/02/03 14:43:47;;;;;;;2.30;2.10;;;;;;;11.57;100.00;100340.89;181849;1254;44258;-85
2024/02/03 14:47:50;;;;;;;1.60;1.50;;;;;;;11.51;100.00;100341.58;181721;1254;44075;-84
2024/02/03 14:51:54;;;;;;;2.80;2.60;;;;;;;11.46;100.00;100338.95;181700;1253;44048;-85
2024/02/03 14:55:57;;;;;;;2.20;1.90;;;;;;;11.42;100.00;100336.98;181920;1252;43870;-84
2024/02/03 15:00:03;;;;;;;2.30;2.00;;;;;;;11.39;100.00;100339.23;181637;1254;57459;-85
2024/02/03 15:04:08;;;;;;;3.40;1.80;;;;;;;11.33;100.00;100337.95;181775;1252;44103;-85
2024/02/03 15:08:11;;;;;;;2.80;2.10;;;;;;;11.24;100.00;100342.75;181967;1252;44102;-85
2024/02/03 15:12:15;;;;;;;4.30;2.90;;;;;;;11.17;100.00;100345.13;181670;1254;44325;-85
2024/02/03 15:16:18;;;;;;;2.40;2.00;;;;;;;11.09;100.00;100353.25;181849;1253;43807;-85
2024/02/03 15:20:22;;;;;;;3.90;2.00;;;;;;;11.05;100.00;100361.55;181777;1254;57966;-85
2024/02/03 15:24:25;;;;;;;3.30;2.30;;;;;;;11.00;100.00;100361.20;181673;1256;44155;-85
2024/02/03 15:28:29;;;;;;;2.50;2.30;;;;;;;10.94;100.00;100370.89;181607;1253;232001;-84
2024/02/03 15:32:36;;;;;;;3.30;2.30;;;;;;;10.84;100.00;100367.30;181686;1253;43822;-83
2024/02/03 15:36:41;;;;;;;3.30;2.80;;;;;;;10.74;100.00;100374.19;181844;1252;44152;-85
2024/02/03 15:40:45;;;;;;;3.50;2.40;;;;;;;10.68;100.00;100376.05;181681;1254;60879;-85
2024/02/03 15:44:48;;;;;;;4.20;3.70;;;;;;;10.65;100.00;100383.77;181873;1253;43821;-85
2024/02/03 15:48:52;;;;;;;5.10;3.20;;;;;;;10.62;100.00;100389.96;181726;1252;44188;-84
2024/02/03 15:52:55;;;;;;;4.50;2.60;;;;;;;10.58;100.00;100384.60;181675;1252;44012;-85
2024/02/03 15:56:59;;;;;;;3.10;2.80;;;;;;;10.58;100.00;100392.94;181854;1253;44089;-84
2024/02/03 16:01:02;;;;;;;8.10;3.70;;;;;;;10.51;100.00;100388.75;181835;1253;60177;-85
2024/02/03 16:05:06;;;;;;;4.70;2.30;;;;;;;10.46;100.00;100383.67;181743;1254;43903;-85
2024/02/03 16:09:10;;;;;;;4.60;2.70;;;;;;;10.43;100.00;100390.62;181873;1254;43827;-85
2024/02/03 16:13:15;;;;;;;2.90;2.50;;;;;;;10.38;100.00;100401.06;181726;1254;44040;-84
2024/02/03 16:17:21;;;;;;;2.20;2.00;;;;;;;10.36;100.00;100409.36;181785;1252;43956;-85
2024/02/03 16:21:25;;;;;;;3.70;2.40;;;;;;;10.35;100.00;100415.00;181727;1254;59765;-84
2024/02/03 16:25:28;;;;;;;3.00;2.50;;;;;;;10.33;100.00;100417.44;181742;1252;43922;-84
2024/02/03 16:29:31;;;;;;;4.50;3.10;;;;;;;10.33;100.00;100407.54;181886;1253;43833;-84
2024/02/03 16:33:35;;;;;;;3.00;2.40;;;;;;;10.29;100.00;100411.02;181789;1254;44182;-84
2024/02/03 16:37:38;;;;;;;6.00;2.30;;;;;;;10.25;100.00;100397.70;181924;1256;44046;-84
2024/02/03 16:41:41;;;;;;;2.20;1.80;;;;;;;10.25;100.00;100392.19;181838;1254;57958;-84
2024/02/03 16:45:45;;;;;;;2.40;2.20;;;;;;;10.25;100.00;100398.56;181672;1253;44077;-84
2024/02/03 16:49:48;;;;;;;1.70;1.60;;;;;;;10.28;100.00;100403.42;181867;1254;44550;-84
2024/02/03 16:53:52;;;;;;;2.90;2.60;;;;;;;10.31;100.00;100395.25;181704;1253;44087;-84
2024/02/03 16:57:55;;;;;;;2.10;1.50;;;;;;;10.32;100.00;100384.58;181553;1254;44181;-84
2024/02/03 17:01:58;;;;;;;3.80;2.20;;;;;;;10.27;100.00;100396.96;181840;1253;59537;-84
2024/02/03 17:06:01;;;;;;;2.90;2.50;;;;;;;10.21;100.00;100403.10;181561;1253;44208;-84
2024/02/03 17:10:09;;;;;;;2.70;2.40;;;;;;;10.25;100.00;100393.95;181708;1253;44009;-84
2024/02/03 17:14:13;;;;;;;4.00;2.90;;;;;;;10.26;100.00;100392.45;181635;1257;44331;-85
2024/02/03 17:18:17;;;;;;;4.00;2.20;;;;;;;10.31;100.00;100389.60;181653;1254;45818;-84
2024/02/03 17:22:21;;;;;;;3.10;2.80;;;;;;;10.31;100.00;100384.09;181689;1254;58696;-84
2024/02/03 17:26:24;;;;;;;4.00;2.90;;;;;;;10.34;100.00;100383.29;181681;1254;43859;-84
2024/02/03 17:30:27;;;;;;;2.90;2.70;;;;;;;10.38;100.00;100385.96;181639;1254;43903;-85
2024/02/03 17:34:33;;;;;;;2.70;2.10;;;;;;;10.40;100.00;100397.02;181653;1253;43874;-84
2024/02/03 17:38:36;;;;;;;6.10;3.30;;;;;;;10.44;100.00;100387.88;181542;1256;44180;-84
2024/02/03 17:42:40;;;;;;;4.90;3.60;;;;;;;10.48;100.00;100386.02;182024;1253;58609;-84
2024/02/03 17:46:43;;;;;;;3.30;2.90;;;;;;;10.48;100.00;100387.61;181601;1254;44075;-85
2024/02/03 17:50:47;;;;;;;4.30;3.00;;;;;;;10.50;100.00;100385.15;181835;1253;43811;-84
2024/02/03 17:54:51;;;;;;;4.80;4.30;;;;;;;10.48;100.00;100389.33;181635;1254;43977;-85
2024/02/03 17:58:54;;;;;;;4.70;3.00;;;;;;;10.43;100.00;100387.79;181622;1253;44181;-84
2024/02/03 18:02:57;;;;;;;3.60;2.90;;;;;;;10.44;100.00;100389.86;181668;1254;60079;-84
2024/02/03 18:07:01;;;;;;;4.00;2.50;;;;;;;10.44;100.00;100377.77;181578;1253;44224;-84
2024/02/03 18:11:05;;;;;;;2.30;2.20;;;;;;;10.47;100.00;100372.58;181703;1254;43948;-83
2024/02/03 18:15:08;;;;;;;3.40;2.70;;;;;;;10.51;100.00;100383.64;181875;1254;44209;-85
2024/02/03 18:19:11;;;;;;;2.90;2.40;;;;;;;10.49;100.00;100388.20;181700;1254;43814;-84
2024/02/03 18:23:15;;;;;;;3.30;2.60;;;;;;;10.47;100.00;100396.00;181740;1253;57533;-84
2024/02/03 18:27:19;;;;;;;4.20;2.00;;;;;;;10.48;100.00;100392.17;181727;1254;44014;-84
2024/02/03 18:31:22;;;;;;;2.30;1.90;;;;;;;10.50;100.00;100390.08;181866;1254;43794;-84